sensor_id;sensor_type;location;lat;lon;timestamp;P1;durP1;ratioP1;P2;durP2;ratioP2
14883;SDS011;7534;50.762;7.000;2023-02-18T00:00:58;3.33;;;2.77;;
14883;SDS011;7534;50.762;7.000;2023-02-18T00:03:25;2.73;;;2.43;;
14883;SDS011;7534;50.762;7.000;2023-02-18T00:05:52;3.27;;;2.97;;
14883;SDS011;7534;50.762;7.000;2023-02-18T00:08:19;3.10;;;2.80;;
14883;SDS011;7534;50.762;7.000;2023-02-18T00:10:45;3.00;;;2.73;;
14883;SDS011;7534;50.762;7.000;2023-02-18T00:13:12;3.20;;;3.00;;
14883;SDS011;7534;50.762;7.000;2023-02-18T00:15:38;2.90;;;2.70;;
14883;SDS011;7534;50.762;7.000;2023-02-18T00:18:04;3.50;;;3.10;;
14883;SDS011;7534;50.762;7.000;2023-02-18T00:20:31;3.27;;;2.80;;
14883;SDS011;7534;50.762;7.000;2023-02-18T00:23:00;3.23;;;2.83;;
14883;SDS011;7534;50.762;7.000;2023-02-18T00:25:27;3.53;;;2.70;;
14883;SDS011;7534;50.762;7.000;2023-02-18T00:27:53;3.30;;;3.00;;
14883;SDS011;7534;50.762;7.000;2023-02-18T00:30:19;3.83;;;3.50;;
14883;SDS011;7534;50.762;7.000;2023-02-18T00:32:44;3.67;;;3.37;;
14883;SDS011;7534;50.762;7.000;2023-02-18T00:35:10;3.70;;;3.33;;
14883;SDS011;7534;50.762;7.000;2023-02-18T00:37:36;3.43;;;3.13;;
14883;SDS011;7534;50.762;7.000;2023-02-18T00:40:02;3.53;;;3.23;;
14883;SDS011;7534;50.762;7.000;2023-02-18T00:42:28;4.40;;;3.20;;
14883;SDS011;7534;50.762;7.000;2023-02-18T00:44:54;3.83;;;3.47;;
14883;SDS011;7534;50.762;7.000;2023-02-18T00:47:19;3.43;;;3.13;;
14883;SDS011;7534;50.762;7.000;2023-02-18T00:49:45;4.00;;;3.60;;
14883;SDS011;7534;50.762;7.000;2023-02-18T00:52:11;3.37;;;2.97;;
14883;SDS011;7534;50.762;7.000;2023-02-18T00:54:36;4.50;;;3.20;;
14883;SDS011;7534;50.762;7.000;2023-02-18T00:57:02;3.73;;;3.33;;
14883;SDS011;7534;50.762;7.000;2023-02-18T00:59:28;3.20;;;2.90;;
14883;SDS011;7534;50.762;7.000;2023-02-18T01:01:53;3.47;;;3.17;;
14883;SDS011;7534;50.762;7.000;2023-02-18T01:04:19;3.83;;;3.53;;
14883;SDS011;7534;50.762;7.000;2023-02-18T01:06:45;3.87;;;3.10;;
14883;SDS011;7534;50.762;7.000;2023-02-18T01:09:10;4.37;;;3.00;;
14883;SDS011;7534;50.762;7.000;2023-02-18T01:11:36;3.20;;;2.90;;
14883;SDS011;7534;50.762;7.000;2023-02-18T01:14:02;3.23;;;2.93;;
14883;SDS011;7534;50.762;7.000;2023-02-18T01:16:28;3.30;;;3.00;;
14883;SDS011;7534;50.762;7.000;2023-02-18T01:18:54;3.20;;;2.80;;
14883;SDS011;7534;50.762;7.000;2023-02-18T01:21:20;3.10;;;2.67;;
14883;SDS011;7534;50.762;7.000;2023-02-18T01:23:46;3.00;;;2.70;;
14883;SDS011;7534;50.762;7.000;2023-02-18T01:26:12;3.00;;;2.63;;
14883;SDS011;7534;50.762;7.000;2023-02-18T01:28:38;2.73;;;2.53;;
14883;SDS011;7534;50.762;7.000;2023-02-18T01:31:06;3.13;;;2.83;;
14883;SDS011;7534;50.762;7.000;2023-02-18T01:33:34;2.83;;;2.60;;
14883;SDS011;7534;50.762;7.000;2023-02-18T01:36:00;3.07;;;2.43;;
14883;SDS011;7534;50.762;7.000;2023-02-18T01:38:27;2.77;;;2.57;;
14883;SDS011;7534;50.762;7.000;2023-02-18T01:40:53;3.53;;;2.40;;
14883;SDS011;7534;50.762;7.000;2023-02-18T01:43:19;2.60;;;2.40;;
14883;SDS011;7534;50.762;7.000;2023-02-18T01:48:29;2.40;;;2.20;;
14883;SDS011;7534;50.762;7.000;2023-02-18T01:51:23;2.60;;;2.40;;
14883;SDS011;7534;50.762;7.000;2023-02-18T01:53:59;2.93;;;2.63;;
14883;SDS011;7534;50.762;7.000;2023-02-18T01:56:51;2.83;;;2.60;;
14883;SDS011;7534;50.762;7.000;2023-02-18T01:59:25;2.83;;;2.50;;
14883;SDS011;7534;50.762;7.000;2023-02-18T02:01:58;3.37;;;2.77;;
14883;SDS011;7534;50.762;7.000;2023-02-18T02:04:24;2.67;;;2.47;;
14883;SDS011;7534;50.762;7.000;2023-02-18T02:06:51;2.63;;;2.30;;
14883;SDS011;7534;50.762;7.000;2023-02-18T02:09:17;3.23;;;2.53;;
14883;SDS011;7534;50.762;7.000;2023-02-18T02:11:54;2.80;;;2.60;;
14883;SDS011;7534;50.762;7.000;2023-02-18T02:14:52;3.60;;;2.67;;
14883;SDS011;7534;50.762;7.000;2023-02-18T02:17:58;2.93;;;2.50;;
14883;SDS011;7534;50.762;7.000;2023-02-18T02:26:57;2.60;;;2.40;;
14883;SDS011;7534;50.762;7.000;2023-02-18T02:36:06;2.30;;;2.10;;
14883;SDS011;7534;50.762;7.000;2023-02-18T02:41:48;2.10;;;1.90;;
14883;SDS011;7534;50.762;7.000;2023-02-18T02:44:37;2.10;;;1.90;;
14883;SDS011;7534;50.762;7.000;2023-02-18T02:47:25;1.87;;;1.77;;
14883;SDS011;7534;50.762;7.000;2023-02-18T02:50:05;3.23;;;2.10;;
14883;SDS011;7534;50.762;7.000;2023-02-18T02:52:51;2.87;;;1.90;;
14883;SDS011;7534;50.762;7.000;2023-02-18T02:55:26;2.23;;;1.67;;
14883;SDS011;7534;50.762;7.000;2023-02-18T02:57:52;1.83;;;1.73;;
14883;SDS011;7534;50.762;7.000;2023-02-18T03:00:22;2.50;;;2.20;;
14883;SDS011;7534;50.762;7.000;2023-02-18T03:06:30;2.00;;;1.80;;
14883;SDS011;7534;50.762;7.000;2023-02-18T03:09:43;2.30;;;2.10;;
14883;SDS011;7534;50.762;7.000;2023-02-18T03:13:29;4.53;;;2.00;;
14883;SDS011;7534;50.762;7.000;2023-02-18T03:16:25;1.90;;;1.60;;
14883;SDS011;7534;50.762;7.000;2023-02-18T03:19:02;1.63;;;1.23;;
14883;SDS011;7534;50.762;7.000;2023-02-18T03:21:57;1.80;;;1.30;;
14883;SDS011;7534;50.762;7.000;2023-02-18T03:24:49;1.10;;;1.03;;
14883;SDS011;7534;50.762;7.000;2023-02-18T03:27:28;0.73;;;0.73;;
14883;SDS011;7534;50.762;7.000;2023-02-18T03:32:46;0.83;;;0.83;;
14883;SDS011;7534;50.762;7.000;2023-02-18T03:35:20;0.80;;;0.80;;
14883;SDS011;7534;50.762;7.000;2023-02-18T03:37:49;0.90;;;0.90;;
14883;SDS011;7534;50.762;7.000;2023-02-18T03:40:27;0.70;;;0.70;;
14883;SDS011;7534;50.762;7.000;2023-02-18T03:42:58;0.60;;;0.60;;
14883;SDS011;7534;50.762;7.000;2023-02-18T03:45:24;0.70;;;0.70;;
14883;SDS011;7534;50.762;7.000;2023-02-18T03:47:51;0.70;;;0.70;;
14883;SDS011;7534;50.762;7.000;2023-02-18T03:50:18;0.50;;;0.50;;
14883;SDS011;7534;50.762;7.000;2023-02-18T03:52:44;0.70;;;0.50;;
14883;SDS011;7534;50.762;7.000;2023-02-18T03:55:10;0.37;;;0.37;;
14883;SDS011;7534;50.762;7.000;2023-02-18T03:57:36;0.40;;;0.40;;
14883;SDS011;7534;50.762;7.000;2023-02-18T04:00:02;0.63;;;0.40;;
14883;SDS011;7534;50.762;7.000;2023-02-18T04:02:30;0.30;;;0.30;;
14883;SDS011;7534;50.762;7.000;2023-02-18T04:04:57;0.50;;;0.50;;
14883;SDS011;7534;50.762;7.000;2023-02-18T04:07:23;0.87;;;0.20;;
14883;SDS011;7534;50.762;7.000;2023-02-18T04:09:49;0.30;;;0.30;;
14883;SDS011;7534;50.762;7.000;2023-02-18T04:12:14;0.33;;;0.33;;
14883;SDS011;7534;50.762;7.000;2023-02-18T04:14:40;0.80;;;0.50;;
14883;SDS011;7534;50.762;7.000;2023-02-18T04:17:05;0.30;;;0.30;;
14883;SDS011;7534;50.762;7.000;2023-02-18T04:19:31;1.43;;;0.40;;
14883;SDS011;7534;50.762;7.000;2023-02-18T04:21:57;0.63;;;0.53;;
14883;SDS011;7534;50.762;7.000;2023-02-18T04:24:22;0.63;;;0.30;;
14883;SDS011;7534;50.762;7.000;2023-02-18T04:26:48;0.30;;;0.30;;
14883;SDS011;7534;50.762;7.000;2023-02-18T04:29:14;0.47;;;0.40;;
14883;SDS011;7534;50.762;7.000;2023-02-18T04:31:39;0.30;;;0.30;;
14883;SDS011;7534;50.762;7.000;2023-02-18T04:34:05;0.10;;;0.10;;
14883;SDS011;7534;50.762;7.000;2023-02-18T04:36:32;0.30;;;0.30;;
14883;SDS011;7534;50.762;7.000;2023-02-18T04:38:58;0.30;;;0.30;;
14883;SDS011;7534;50.762;7.000;2023-02-18T04:41:24;0.13;;;0.13;;
14883;SDS011;7534;50.762;7.000;2023-02-18T04:43:50;0.20;;;0.20;;
14883;SDS011;7534;50.762;7.000;2023-02-18T04:46:16;0.30;;;0.30;;
14883;SDS011;7534;50.762;7.000;2023-02-18T04:48:42;0.40;;;0.30;;
14883;SDS011;7534;50.762;7.000;2023-02-18T04:51:07;0.20;;;0.20;;
14883;SDS011;7534;50.762;7.000;2023-02-18T04:53:33;0.20;;;0.20;;
14883;SDS011;7534;50.762;7.000;2023-02-18T04:55:59;0.30;;;0.30;;
14883;SDS011;7534;50.762;7.000;2023-02-18T04:58:25;0.20;;;0.20;;
14883;SDS011;7534;50.762;7.000;2023-02-18T05:00:50;0.30;;;0.30;;
14883;SDS011;7534;50.762;7.000;2023-02-18T05:03:18;0.30;;;0.30;;
14883;SDS011;7534;50.762;7.000;2023-02-18T05:05:44;0.20;;;0.20;;
14883;SDS011;7534;50.762;7.000;2023-02-18T05:08:10;0.23;;;0.23;;
14883;SDS011;7534;50.762;7.000;2023-02-18T05:10:37;0.30;;;0.30;;
14883;SDS011;7534;50.762;7.000;2023-02-18T05:13:03;0.33;;;0.30;;
14883;SDS011;7534;50.762;7.000;2023-02-18T05:15:29;0.20;;;0.20;;
14883;SDS011;7534;50.762;7.000;2023-02-18T05:17:54;0.20;;;0.20;;
14883;SDS011;7534;50.762;7.000;2023-02-18T05:20:20;0.43;;;0.20;;
14883;SDS011;7534;50.762;7.000;2023-02-18T05:22:46;0.30;;;0.30;;
14883;SDS011;7534;50.762;7.000;2023-02-18T05:25:11;0.27;;;0.27;;
14883;SDS011;7534;50.762;7.000;2023-02-18T05:27:37;0.40;;;0.40;;
14883;SDS011;7534;50.762;7.000;2023-02-18T05:30:03;0.23;;;0.23;;
14883;SDS011;7534;50.762;7.000;2023-02-18T05:32:29;0.30;;;0.30;;
14883;SDS011;7534;50.762;7.000;2023-02-18T05:34:55;0.20;;;0.20;;
14883;SDS011;7534;50.762;7.000;2023-02-18T05:37:21;0.20;;;0.20;;
14883;SDS011;7534;50.762;7.000;2023-02-18T05:39:47;0.53;;;0.30;;
14883;SDS011;7534;50.762;7.000;2023-02-18T05:42:12;0.30;;;0.30;;
14883;SDS011;7534;50.762;7.000;2023-02-18T05:44:38;0.20;;;0.20;;
14883;SDS011;7534;50.762;7.000;2023-02-18T05:47:09;0.20;;;0.20;;
14883;SDS011;7534;50.762;7.000;2023-02-18T05:49:36;0.20;;;0.20;;
14883;SDS011;7534;50.762;7.000;2023-02-18T05:52:04;0.20;;;0.20;;
14883;SDS011;7534;50.762;7.000;2023-02-18T05:54:31;0.37;;;0.17;;
14883;SDS011;7534;50.762;7.000;2023-02-18T05:56:58;0.20;;;0.20;;
14883;SDS011;7534;50.762;7.000;2023-02-18T05:59:24;0.20;;;0.20;;
14883;SDS011;7534;50.762;7.000;2023-02-18T06:01:50;0.30;;;0.30;;
14883;SDS011;7534;50.762;7.000;2023-02-18T06:04:16;0.20;;;0.20;;
14883;SDS011;7534;50.762;7.000;2023-02-18T06:06:42;0.27;;;0.27;;
14883;SDS011;7534;50.762;7.000;2023-02-18T06:09:08;0.57;;;0.30;;
14883;SDS011;7534;50.762;7.000;2023-02-18T06:11:34;0.20;;;0.20;;
14883;SDS011;7534;50.762;7.000;2023-02-18T06:14:00;0.20;;;0.20;;
14883;SDS011;7534;50.762;7.000;2023-02-18T06:16:27;0.37;;;0.37;;
14883;SDS011;7534;50.762;7.000;2023-02-18T06:18:53;0.40;;;0.20;;
14883;SDS011;7534;50.762;7.000;2023-02-18T06:21:19;0.20;;;0.20;;
14883;SDS011;7534;50.762;7.000;2023-02-18T06:23:45;0.20;;;0.20;;
14883;SDS011;7534;50.762;7.000;2023-02-18T06:26:11;0.30;;;0.30;;
14883;SDS011;7534;50.762;7.000;2023-02-18T06:28:37;0.33;;;0.33;;
14883;SDS011;7534;50.762;7.000;2023-02-18T06:31:03;0.40;;;0.30;;
14883;SDS011;7534;50.762;7.000;2023-02-18T06:33:28;0.23;;;0.23;;
14883;SDS011;7534;50.762;7.000;2023-02-18T06:35:55;0.23;;;0.23;;
14883;SDS011;7534;50.762;7.000;2023-02-18T06:38:35;0.30;;;0.30;;
14883;SDS011;7534;50.762;7.000;2023-02-18T06:41:03;0.30;;;0.30;;
14883;SDS011;7534;50.762;7.000;2023-02-18T06:43:29;0.20;;;0.20;;
14883;SDS011;7534;50.762;7.000;2023-02-18T06:45:55;0.30;;;0.30;;
14883;SDS011;7534;50.762;7.000;2023-02-18T06:48:21;0.33;;;0.33;;
14883;SDS011;7534;50.762;7.000;2023-02-18T06:50:48;0.43;;;0.40;;
14883;SDS011;7534;50.762;7.000;2023-02-18T06:53:14;0.20;;;0.20;;
14883;SDS011;7534;50.762;7.000;2023-02-18T06:55:43;0.20;;;0.20;;
14883;SDS011;7534;50.762;7.000;2023-02-18T06:58:10;0.20;;;0.20;;
14883;SDS011;7534;50.762;7.000;2023-02-18T07:00:37;2.63;;;0.40;;
14883;SDS011;7534;50.762;7.000;2023-02-18T07:03:03;0.60;;;0.40;;
14883;SDS011;7534;50.762;7.000;2023-02-18T07:05:29;0.20;;;0.20;;
14883;SDS011;7534;50.762;7.000;2023-02-18T07:07:55;0.30;;;0.30;;
14883;SDS011;7534;50.762;7.000;2023-02-18T07:10:21;0.23;;;0.23;;
14883;SDS011;7534;50.762;7.000;2023-02-18T07:12:47;0.40;;;0.33;;
14883;SDS011;7534;50.762;7.000;2023-02-18T07:15:13;0.20;;;0.20;;
14883;SDS011;7534;50.762;7.000;2023-02-18T07:17:39;0.20;;;0.20;;
14883;SDS011;7534;50.762;7.000;2023-02-18T07:20:05;0.30;;;0.30;;
14883;SDS011;7534;50.762;7.000;2023-02-18T07:22:32;0.20;;;0.20;;
14883;SDS011;7534;50.762;7.000;2023-02-18T07:24:57;0.30;;;0.30;;
14883;SDS011;7534;50.762;7.000;2023-02-18T07:27:23;0.30;;;0.30;;
14883;SDS011;7534;50.762;7.000;2023-02-18T07:29:49;0.30;;;0.30;;
14883;SDS011;7534;50.762;7.000;2023-02-18T07:32:15;0.30;;;0.30;;
14883;SDS011;7534;50.762;7.000;2023-02-18T07:34:43;0.40;;;0.40;;
14883;SDS011;7534;50.762;7.000;2023-02-18T07:37:09;0.60;;;0.60;;
14883;SDS011;7534;50.762;7.000;2023-02-18T07:39:42;0.40;;;0.40;;
14883;SDS011;7534;50.762;7.000;2023-02-18T07:42:08;0.40;;;0.40;;
14883;SDS011;7534;50.762;7.000;2023-02-18T07:44:35;0.53;;;0.53;;
14883;SDS011;7534;50.762;7.000;2023-02-18T07:47:03;0.50;;;0.50;;
14883;SDS011;7534;50.762;7.000;2023-02-18T07:49:31;0.40;;;0.40;;
14883;SDS011;7534;50.762;7.000;2023-02-18T07:51:58;0.50;;;0.50;;
14883;SDS011;7534;50.762;7.000;2023-02-18T07:54:24;0.40;;;0.40;;
14883;SDS011;7534;50.762;7.000;2023-02-18T07:56:50;0.33;;;0.33;;
14883;SDS011;7534;50.762;7.000;2023-02-18T07:59:17;0.80;;;0.37;;
14883;SDS011;7534;50.762;7.000;2023-02-18T08:01:43;0.47;;;0.47;;
14883;SDS011;7534;50.762;7.000;2023-02-18T08:04:09;0.40;;;0.40;;
14883;SDS011;7534;50.762;7.000;2023-02-18T08:06:36;0.30;;;0.30;;
14883;SDS011;7534;50.762;7.000;2023-02-18T08:09:04;0.40;;;0.40;;
14883;SDS011;7534;50.762;7.000;2023-02-18T08:11:31;0.50;;;0.50;;
14883;SDS011;7534;50.762;7.000;2023-02-18T08:13:58;0.40;;;0.40;;
14883;SDS011;7534;50.762;7.000;2023-02-18T08:16:23;0.63;;;0.30;;
14883;SDS011;7534;50.762;7.000;2023-02-18T08:18:50;0.33;;;0.33;;
14883;SDS011;7534;50.762;7.000;2023-02-18T08:21:17;0.50;;;0.50;;
14883;SDS011;7534;50.762;7.000;2023-02-18T08:23:46;0.63;;;0.57;;
14883;SDS011;7534;50.762;7.000;2023-02-18T08:26:13;1.03;;;0.63;;
14883;SDS011;7534;50.762;7.000;2023-02-18T08:28:39;0.83;;;0.83;;
14883;SDS011;7534;50.762;7.000;2023-02-18T08:31:05;1.10;;;0.80;;
14883;SDS011;7534;50.762;7.000;2023-02-18T08:33:31;2.23;;;1.10;;
14883;SDS011;7534;50.762;7.000;2023-02-18T08:35:57;1.40;;;1.30;;
14883;SDS011;7534;50.762;7.000;2023-02-18T08:38:23;1.55;;;1.27;;
14883;SDS011;7534;50.762;7.000;2023-02-18T08:40:49;2.03;;;1.50;;
14883;SDS011;7534;50.762;7.000;2023-02-18T08:43:16;2.27;;;1.70;;
14883;SDS011;7534;50.762;7.000;2023-02-18T08:45:42;4.37;;;1.60;;
14883;SDS011;7534;50.762;7.000;2023-02-18T08:48:09;3.80;;;1.70;;
14883;SDS011;7534;50.762;7.000;2023-02-18T08:50:38;3.10;;;1.80;;
14883;SDS011;7534;50.762;7.000;2023-02-18T08:53:03;2.07;;;1.40;;
14883;SDS011;7534;50.762;7.000;2023-02-18T08:55:30;1.83;;;1.23;;
14883;SDS011;7534;50.762;7.000;2023-02-18T08:57:58;2.10;;;1.43;;
14883;SDS011;7534;50.762;7.000;2023-02-18T09:00:25;3.57;;;1.60;;
14883;SDS011;7534;50.762;7.000;2023-02-18T09:02:51;3.10;;;1.60;;
14883;SDS011;7534;50.762;7.000;2023-02-18T09:05:17;2.73;;;1.50;;
14883;SDS011;7534;50.762;7.000;2023-02-18T09:07:43;3.77;;;1.50;;
14883;SDS011;7534;50.762;7.000;2023-02-18T09:10:08;2.23;;;1.40;;
14883;SDS011;7534;50.762;7.000;2023-02-18T09:12:35;3.63;;;1.30;;
14883;SDS011;7534;50.762;7.000;2023-02-18T09:15:01;3.90;;;1.37;;
14883;SDS011;7534;50.762;7.000;2023-02-18T09:17:28;3.83;;;1.47;;
14883;SDS011;7534;50.762;7.000;2023-02-18T09:19:55;1.97;;;1.20;;
14883;SDS011;7534;50.762;7.000;2023-02-18T09:22:20;1.37;;;1.17;;
14883;SDS011;7534;50.762;7.000;2023-02-18T09:24:46;1.97;;;1.10;;
14883;SDS011;7534;50.762;7.000;2023-02-18T09:27:12;3.33;;;1.20;;
14883;SDS011;7534;50.762;7.000;2023-02-18T09:29:38;1.10;;;1.00;;
14883;SDS011;7534;50.762;7.000;2023-02-18T09:32:05;2.63;;;1.30;;
14883;SDS011;7534;50.762;7.000;2023-02-18T09:34:32;2.17;;;1.10;;
14883;SDS011;7534;50.762;7.000;2023-02-18T09:37:00;1.43;;;1.30;;
14883;SDS011;7534;50.762;7.000;2023-02-18T09:39:26;3.43;;;1.40;;
14883;SDS011;7534;50.762;7.000;2023-02-18T09:41:53;2.70;;;1.40;;
14883;SDS011;7534;50.762;7.000;2023-02-18T09:47:10;2.20;;;1.30;;
14883;SDS011;7534;50.762;7.000;2023-02-18T09:49:51;4.40;;;1.57;;
14883;SDS011;7534;50.762;7.000;2023-02-18T09:52:23;3.40;;;1.60;;
14883;SDS011;7534;50.762;7.000;2023-02-18T09:54:55;3.93;;;1.47;;
14883;SDS011;7534;50.762;7.000;2023-02-18T09:57:26;4.63;;;1.50;;
14883;SDS011;7534;50.762;7.000;2023-02-18T10:00:09;2.63;;;1.70;;
14883;SDS011;7534;50.762;7.000;2023-02-18T10:02:40;3.80;;;1.60;;
14883;SDS011;7534;50.762;7.000;2023-02-18T10:05:19;1.67;;;1.43;;
14883;SDS011;7534;50.762;7.000;2023-02-18T10:07:47;3.87;;;1.53;;
14883;SDS011;7534;50.762;7.000;2023-02-18T10:10:32;5.40;;;1.60;;
14883;SDS011;7534;50.762;7.000;2023-02-18T10:13:13;3.90;;;1.53;;
14883;SDS011;7534;50.762;7.000;2023-02-18T10:15:47;3.43;;;1.40;;
14883;SDS011;7534;50.762;7.000;2023-02-18T10:18:25;3.43;;;1.20;;
14883;SDS011;7534;50.762;7.000;2023-02-18T10:21:16;3.30;;;1.17;;
14883;SDS011;7534;50.762;7.000;2023-02-18T10:26:29;1.53;;;1.13;;
14883;SDS011;7534;50.762;7.000;2023-02-18T10:28:59;2.50;;;1.20;;
14883;SDS011;7534;50.762;7.000;2023-02-18T10:31:36;2.47;;;1.17;;
14883;SDS011;7534;50.762;7.000;2023-02-18T10:46:00;1.93;;;1.37;;
14883;SDS011;7534;50.762;7.000;2023-02-18T10:51:57;3.27;;;1.77;;
14883;SDS011;7534;50.762;7.000;2023-02-18T10:54:27;4.17;;;1.43;;
14883;SDS011;7534;50.762;7.000;2023-02-18T10:57:25;3.33;;;1.50;;
14883;SDS011;7534;50.762;7.000;2023-02-18T11:05:44;3.33;;;1.20;;
14883;SDS011;7534;50.762;7.000;2023-02-18T11:08:19;2.20;;;1.30;;
14883;SDS011;7534;50.762;7.000;2023-02-18T11:10:50;2.27;;;1.30;;
14883;SDS011;7534;50.762;7.000;2023-02-18T11:13:25;3.90;;;1.20;;
14883;SDS011;7534;50.762;7.000;2023-02-18T11:15:56;2.27;;;1.30;;
14883;SDS011;7534;50.762;7.000;2023-02-18T11:18:40;2.27;;;1.20;;
14883;SDS011;7534;50.762;7.000;2023-02-18T11:21:25;1.90;;;1.40;;
14883;SDS011;7534;50.762;7.000;2023-02-18T11:24:09;1.20;;;1.10;;
14883;SDS011;7534;50.762;7.000;2023-02-18T11:26:40;3.93;;;1.37;;
14883;SDS011;7534;50.762;7.000;2023-02-18T11:29:20;2.30;;;0.97;;
14883;SDS011;7534;50.762;7.000;2023-02-18T11:31:50;1.53;;;1.00;;
14883;SDS011;7534;50.762;7.000;2023-02-18T11:34:27;1.50;;;1.10;;
14883;SDS011;7534;50.762;7.000;2023-02-18T11:37:07;1.50;;;1.07;;
14883;SDS011;7534;50.762;7.000;2023-02-18T11:39:44;2.30;;;1.10;;
14883;SDS011;7534;50.762;7.000;2023-02-18T11:42:15;2.10;;;1.10;;
14883;SDS011;7534;50.762;7.000;2023-02-18T11:44:50;1.07;;;0.80;;
14883;SDS011;7534;50.762;7.000;2023-02-18T11:47:23;1.30;;;0.90;;
14883;SDS011;7534;50.762;7.000;2023-02-18T11:52:37;1.00;;;0.90;;
14883;SDS011;7534;50.762;7.000;2023-02-18T11:55:19;1.40;;;0.80;;
14883;SDS011;7534;50.762;7.000;2023-02-18T12:00:42;2.23;;;0.90;;
14883;SDS011;7534;50.762;7.000;2023-02-18T12:03:14;1.03;;;0.97;;
14883;SDS011;7534;50.762;7.000;2023-02-18T12:06:17;0.80;;;0.80;;
14883;SDS011;7534;50.762;7.000;2023-02-18T12:08:55;1.40;;;0.90;;
14883;SDS011;7534;50.762;7.000;2023-02-18T12:11:35;0.80;;;0.80;;
14883;SDS011;7534;50.762;7.000;2023-02-18T12:14:08;0.97;;;0.90;;
14883;SDS011;7534;50.762;7.000;2023-02-18T12:17:22;1.10;;;1.00;;
14883;SDS011;7534;50.762;7.000;2023-02-18T12:26:07;0.77;;;0.77;;
14883;SDS011;7534;50.762;7.000;2023-02-18T12:29:11;0.80;;;0.80;;
14883;SDS011;7534;50.762;7.000;2023-02-18T12:41:39;1.53;;;1.00;;
14883;SDS011;7534;50.762;7.000;2023-02-18T12:53:52;0.90;;;0.90;;
14883;SDS011;7534;50.762;7.000;2023-02-18T13:05:56;1.40;;;0.90;;
14883;SDS011;7534;50.762;7.000;2023-02-18T13:17:37;0.70;;;0.70;;
14883;SDS011;7534;50.762;7.000;2023-02-18T13:20:16;0.60;;;0.60;;
14883;SDS011;7534;50.762;7.000;2023-02-18T13:22:50;1.40;;;0.70;;
14883;SDS011;7534;50.762;7.000;2023-02-18T13:25:17;1.00;;;0.80;;
14883;SDS011;7534;50.762;7.000;2023-02-18T13:27:49;2.10;;;0.90;;
14883;SDS011;7534;50.762;7.000;2023-02-18T13:30:30;0.82;;;0.80;;
14883;SDS011;7534;50.762;7.000;2023-02-18T13:41:33;0.80;;;0.80;;
14883;SDS011;7534;50.762;7.000;2023-02-18T13:44:09;1.00;;;0.80;;
14883;SDS011;7534;50.762;7.000;2023-02-18T13:46:57;1.63;;;0.80;;
14883;SDS011;7534;50.762;7.000;2023-02-18T13:49:31;1.57;;;0.70;;
14883;SDS011;7534;50.762;7.000;2023-02-18T13:51:59;1.23;;;0.80;;
14883;SDS011;7534;50.762;7.000;2023-02-18T13:54:32;0.60;;;0.60;;
14883;SDS011;7534;50.762;7.000;2023-02-18T13:57:16;1.20;;;0.80;;
14883;SDS011;7534;50.762;7.000;2023-02-18T13:59:51;0.60;;;0.60;;
14883;SDS011;7534;50.762;7.000;2023-02-18T14:04:51;0.93;;;0.80;;
14883;SDS011;7534;50.762;7.000;2023-02-18T14:08:28;0.70;;;0.70;;
14883;SDS011;7534;50.762;7.000;2023-02-18T14:11:37;0.90;;;0.77;;
14883;SDS011;7534;50.762;7.000;2023-02-18T14:13:39;0.80;;;0.80;;
14883;SDS011;7534;50.762;7.000;2023-02-18T14:16:14;1.90;;;0.70;;
14883;SDS011;7534;50.762;7.000;2023-02-18T14:26:08;0.50;;;0.50;;
14883;SDS011;7534;50.762;7.000;2023-02-18T14:28:51;0.93;;;0.73;;
14883;SDS011;7534;50.762;7.000;2023-02-18T14:31:56;0.70;;;0.70;;
14883;SDS011;7534;50.762;7.000;2023-02-18T14:34:36;0.67;;;0.67;;
14883;SDS011;7534;50.762;7.000;2023-02-18T14:42:55;0.50;;;0.50;;
14883;SDS011;7534;50.762;7.000;2023-02-18T14:48:31;0.60;;;0.60;;
14883;SDS011;7534;50.762;7.000;2023-02-18T14:51:40;0.67;;;0.60;;
14883;SDS011;7534;50.762;7.000;2023-02-18T14:54:12;0.50;;;0.50;;
14883;SDS011;7534;50.762;7.000;2023-02-18T14:59:22;0.87;;;0.60;;
14883;SDS011;7534;50.762;7.000;2023-02-18T15:01:55;0.67;;;0.67;;
14883;SDS011;7534;50.762;7.000;2023-02-18T15:04:22;0.50;;;0.50;;
14883;SDS011;7534;50.762;7.000;2023-02-18T15:07:01;0.53;;;0.53;;
14883;SDS011;7534;50.762;7.000;2023-02-18T15:09:29;0.50;;;0.50;;
14883;SDS011;7534;50.762;7.000;2023-02-18T15:11:56;0.70;;;0.70;;
14883;SDS011;7534;50.762;7.000;2023-02-18T15:14:37;0.60;;;0.60;;
14883;SDS011;7534;50.762;7.000;2023-02-18T15:17:07;0.77;;;0.77;;
14883;SDS011;7534;50.762;7.000;2023-02-18T15:19:45;0.70;;;0.70;;
14883;SDS011;7534;50.762;7.000;2023-02-18T15:22:23;0.70;;;0.70;;
14883;SDS011;7534;50.762;7.000;2023-02-18T15:24:54;0.40;;;0.40;;
14883;SDS011;7534;50.762;7.000;2023-02-18T15:27:28;0.57;;;0.57;;
14883;SDS011;7534;50.762;7.000;2023-02-18T15:32:58;0.50;;;0.50;;
14883;SDS011;7534;50.762;7.000;2023-02-18T15:35:26;2.20;;;1.80;;
14883;SDS011;7534;50.762;7.000;2023-02-18T15:37:57;0.67;;;0.67;;
14883;SDS011;7534;50.762;7.000;2023-02-18T15:40:34;0.70;;;0.70;;
14883;SDS011;7534;50.762;7.000;2023-02-18T15:43:04;0.97;;;0.93;;
14883;SDS011;7534;50.762;7.000;2023-02-18T15:45:38;1.37;;;1.27;;
14883;SDS011;7534;50.762;7.000;2023-02-18T15:50:55;0.67;;;0.67;;
14883;SDS011;7534;50.762;7.000;2023-02-18T15:53:26;0.80;;;0.60;;
14883;SDS011;7534;50.762;7.000;2023-02-18T15:55:52;1.30;;;1.20;;
14883;SDS011;7534;50.762;7.000;2023-02-18T15:58:26;1.20;;;1.10;;
14883;SDS011;7534;50.762;7.000;2023-02-18T16:01:00;1.00;;;1.00;;
14883;SDS011;7534;50.762;7.000;2023-02-18T16:11:31;0.70;;;0.70;;
14883;SDS011;7534;50.762;7.000;2023-02-18T16:14:04;0.60;;;0.60;;
14883;SDS011;7534;50.762;7.000;2023-02-18T16:16:32;0.80;;;0.80;;
14883;SDS011;7534;50.762;7.000;2023-02-18T16:19:01;0.67;;;0.67;;
14883;SDS011;7534;50.762;7.000;2023-02-18T16:21:29;0.80;;;0.80;;
14883;SDS011;7534;50.762;7.000;2023-02-18T16:26:53;0.57;;;0.57;;
14883;SDS011;7534;50.762;7.000;2023-02-18T16:29:33;0.80;;;0.60;;
14883;SDS011;7534;50.762;7.000;2023-02-18T16:32:05;0.80;;;0.80;;
14883;SDS011;7534;50.762;7.000;2023-02-18T16:34:31;1.00;;;0.90;;
14883;SDS011;7534;50.762;7.000;2023-02-18T16:36:57;1.10;;;1.00;;
14883;SDS011;7534;50.762;7.000;2023-02-18T16:39:41;0.97;;;0.90;;
14883;SDS011;7534;50.762;7.000;2023-02-18T16:42:08;0.80;;;0.70;;
14883;SDS011;7534;50.762;7.000;2023-02-18T16:44:36;0.80;;;0.80;;
14883;SDS011;7534;50.762;7.000;2023-02-18T16:47:02;0.70;;;0.70;;
14883;SDS011;7534;50.762;7.000;2023-02-18T16:49:28;0.73;;;0.73;;
14883;SDS011;7534;50.762;7.000;2023-02-18T16:51:55;0.90;;;0.90;;
14883;SDS011;7534;50.762;7.000;2023-02-18T16:54:23;0.80;;;0.80;;
14883;SDS011;7534;50.762;7.000;2023-02-18T16:56:48;0.80;;;0.80;;
14883;SDS011;7534;50.762;7.000;2023-02-18T16:59:14;0.90;;;0.90;;
14883;SDS011;7534;50.762;7.000;2023-02-18T17:01:40;0.70;;;0.70;;
14883;SDS011;7534;50.762;7.000;2023-02-18T17:04:09;1.17;;;0.80;;
14883;SDS011;7534;50.762;7.000;2023-02-18T17:06:39;0.90;;;0.90;;
14883;SDS011;7534;50.762;7.000;2023-02-18T17:09:17;2.77;;;1.57;;
14883;SDS011;7534;50.762;7.000;2023-02-18T17:11:47;2.17;;;1.40;;
14883;SDS011;7534;50.762;7.000;2023-02-18T17:14:16;1.30;;;1.20;;
14883;SDS011;7534;50.762;7.000;2023-02-18T17:16:47;0.90;;;0.90;;
14883;SDS011;7534;50.762;7.000;2023-02-18T17:19:16;1.00;;;0.93;;
14883;SDS011;7534;50.762;7.000;2023-02-18T17:21:42;0.90;;;0.80;;
14883;SDS011;7534;50.762;7.000;2023-02-18T17:24:12;1.93;;;1.00;;
14883;SDS011;7534;50.762;7.000;2023-02-18T17:26:40;0.90;;;0.90;;
14883;SDS011;7534;50.762;7.000;2023-02-18T17:29:06;0.90;;;0.90;;
14883;SDS011;7534;50.762;7.000;2023-02-18T17:31:38;1.23;;;0.90;;
14883;SDS011;7534;50.762;7.000;2023-02-18T17:34:21;1.20;;;1.10;;
14883;SDS011;7534;50.762;7.000;2023-02-18T17:36:55;0.77;;;0.77;;
14883;SDS011;7534;50.762;7.000;2023-02-18T17:39:21;0.80;;;0.80;;
14883;SDS011;7534;50.762;7.000;2023-02-18T17:41:48;1.00;;;1.00;;
14883;SDS011;7534;50.762;7.000;2023-02-18T17:44:19;1.07;;;0.97;;
14883;SDS011;7534;50.762;7.000;2023-02-18T17:46:47;0.90;;;0.90;;
14883;SDS011;7534;50.762;7.000;2023-02-18T17:49:14;0.73;;;0.73;;
14883;SDS011;7534;50.762;7.000;2023-02-18T17:51:40;0.90;;;0.90;;